sensor_id;sensor_type;location;lat;lon;timestamp;P1;durP1;ratioP1;P2;durP2;ratioP2
1775;SDS011;885;42.626;23.200;2023-04-03T00:00:42;1.70;;;1.60;;
1775;SDS011;885;42.626;23.200;2023-04-03T00:03:09;4.57;;;1.50;;
1775;SDS011;885;42.626;23.200;2023-04-03T00:05:36;1.60;;;1.50;;
1775;SDS011;885;42.626;23.200;2023-04-03T00:08:04;4.47;;;2.07;;
1775;SDS011;885;42.626;23.200;2023-04-03T00:10:33;1.57;;;1.33;;
1775;SDS011;885;42.626;23.200;2023-04-03T00:13:00;1.60;;;1.50;;
1775;SDS011;885;42.626;23.200;2023-04-03T00:15:27;1.40;;;1.30;;
1775;SDS011;885;42.626;23.200;2023-04-03T00:17:54;2.23;;;1.30;;
1775;SDS011;885;42.626;23.200;2023-04-03T00:20:20;1.77;;;1.60;;
1775;SDS011;885;42.626;23.200;2023-04-03T00:22:47;1.70;;;1.57;;
1775;SDS011;885;42.626;23.200;2023-04-03T00:25:16;1.77;;;1.50;;
1775;SDS011;885;42.626;23.200;2023-04-03T00:27:42;1.67;;;1.57;;
1775;SDS011;885;42.626;23.200;2023-04-03T00:30:11;1.73;;;1.63;;
1775;SDS011;885;42.626;23.200;2023-04-03T00:32:40;2.13;;;1.70;;
1775;SDS011;885;42.626;23.200;2023-04-03T00:35:07;1.97;;;1.60;;
1775;SDS011;885;42.626;23.200;2023-04-03T00:37:34;1.73;;;1.63;;
1775;SDS011;885;42.626;23.200;2023-04-03T00:40:02;1.87;;;1.70;;
1775;SDS011;885;42.626;23.200;2023-04-03T00:42:31;1.60;;;1.50;;
1775;SDS011;885;42.626;23.200;2023-04-03T00:47:50;1.87;;;1.77;;
1775;SDS011;885;42.626;23.200;2023-04-03T00:50:17;1.60;;;1.50;;
1775;SDS011;885;42.626;23.200;2023-04-03T00:52:44;1.80;;;1.70;;
1775;SDS011;885;42.626;23.200;2023-04-03T00:55:14;1.83;;;1.70;;
1775;SDS011;885;42.626;23.200;2023-04-03T00:57:44;1.80;;;1.60;;
1775;SDS011;885;42.626;23.200;2023-04-03T01:00:13;1.70;;;1.60;;
1775;SDS011;885;42.626;23.200;2023-04-03T01:02:42;1.90;;;1.40;;
1775;SDS011;885;42.626;23.200;2023-04-03T01:05:09;6.30;;;1.90;;
1775;SDS011;885;42.626;23.200;2023-04-03T01:07:37;1.60;;;1.50;;
1775;SDS011;885;42.626;23.200;2023-04-03T01:10:05;1.60;;;1.50;;
1775;SDS011;885;42.626;23.200;2023-04-03T01:12:35;1.53;;;1.43;;
1775;SDS011;885;42.626;23.200;2023-04-03T01:15:06;1.90;;;1.40;;
1775;SDS011;885;42.626;23.200;2023-04-03T01:17:36;1.63;;;1.50;;
1775;SDS011;885;42.626;23.200;2023-04-03T01:20:14;1.77;;;1.67;;
1775;SDS011;885;42.626;23.200;2023-04-03T01:23:11;1.60;;;1.50;;
1775;SDS011;885;42.626;23.200;2023-04-03T01:25:49;1.77;;;1.60;;
1775;SDS011;885;42.626;23.200;2023-04-03T01:28:18;1.80;;;1.60;;
1775;SDS011;885;42.626;23.200;2023-04-03T01:30:49;1.60;;;1.50;;
1775;SDS011;885;42.626;23.200;2023-04-03T01:33:22;1.83;;;1.30;;
1775;SDS011;885;42.626;23.200;2023-04-03T01:35:49;6.73;;;6.23;;
1775;SDS011;885;42.626;23.200;2023-04-03T01:38:15;7.50;;;6.90;;
1775;SDS011;885;42.626;23.200;2023-04-03T01:40:42;4.53;;;4.13;;
1775;SDS011;885;42.626;23.200;2023-04-03T01:43:09;3.77;;;2.47;;
1775;SDS011;885;42.626;23.200;2023-04-03T01:45:36;1.90;;;1.60;;
1775;SDS011;885;42.626;23.200;2023-04-03T01:48:03;2.53;;;2.20;;
1775;SDS011;885;42.626;23.200;2023-04-03T01:50:32;4.07;;;2.90;;
1775;SDS011;885;42.626;23.200;2023-04-03T01:52:59;2.77;;;2.57;;
1775;SDS011;885;42.626;23.200;2023-04-03T01:55:25;3.70;;;2.27;;
1775;SDS011;885;42.626;23.200;2023-04-03T01:57:52;2.43;;;1.50;;
1775;SDS011;885;42.626;23.200;2023-04-03T02:00:20;1.57;;;1.47;;
1775;SDS011;885;42.626;23.200;2023-04-03T02:02:47;2.13;;;1.73;;
1775;SDS011;885;42.626;23.200;2023-04-03T02:05:13;1.60;;;1.50;;
1775;SDS011;885;42.626;23.200;2023-04-03T02:07:42;1.70;;;1.60;;
1775;SDS011;885;42.626;23.200;2023-04-03T02:10:09;2.00;;;1.53;;
1775;SDS011;885;42.626;23.200;2023-04-03T02:12:36;1.90;;;1.80;;
1775;SDS011;885;42.626;23.200;2023-04-03T02:15:03;1.90;;;1.70;;
1775;SDS011;885;42.626;23.200;2023-04-03T02:17:32;1.90;;;1.77;;
1775;SDS011;885;42.626;23.200;2023-04-03T02:19:59;2.07;;;1.90;;
1775;SDS011;885;42.626;23.200;2023-04-03T02:22:26;1.97;;;1.80;;
1775;SDS011;885;42.626;23.200;2023-04-03T02:24:54;1.87;;;1.70;;
1775;SDS011;885;42.626;23.200;2023-04-03T02:27:21;4.37;;;4.03;;
1775;SDS011;885;42.626;23.200;2023-04-03T02:29:49;2.10;;;2.00;;
1775;SDS011;885;42.626;23.200;2023-04-03T02:32:16;3.43;;;1.90;;
1775;SDS011;885;42.626;23.200;2023-04-03T02:34:43;2.10;;;1.90;;
1775;SDS011;885;42.626;23.200;2023-04-03T02:37:09;1.77;;;1.67;;
1775;SDS011;885;42.626;23.200;2023-04-03T02:39:36;1.80;;;1.70;;
1775;SDS011;885;42.626;23.200;2023-04-03T02:42:05;1.70;;;1.60;;
1775;SDS011;885;42.626;23.200;2023-04-03T02:44:32;2.07;;;1.87;;
1775;SDS011;885;42.626;23.200;2023-04-03T02:46:59;2.17;;;1.63;;
1775;SDS011;885;42.626;23.200;2023-04-03T02:49:25;1.70;;;1.60;;
1775;SDS011;885;42.626;23.200;2023-04-03T02:51:52;1.80;;;1.70;;
1775;SDS011;885;42.626;23.200;2023-04-03T02:54:19;1.50;;;1.40;;
1775;SDS011;885;42.626;23.200;2023-04-03T02:56:48;1.97;;;1.73;;
1775;SDS011;885;42.626;23.200;2023-04-03T02:59:16;2.00;;;1.77;;
1775;SDS011;885;42.626;23.200;2023-04-03T03:01:43;1.90;;;1.80;;
1775;SDS011;885;42.626;23.200;2023-04-03T03:04:10;3.00;;;1.60;;
1775;SDS011;885;42.626;23.200;2023-04-03T03:06:37;1.87;;;1.77;;
1775;SDS011;885;42.626;23.200;2023-04-03T03:09:04;1.53;;;1.40;;
1775;SDS011;885;42.626;23.200;2023-04-03T03:11:31;1.90;;;1.80;;
1775;SDS011;885;42.626;23.200;2023-04-03T03:13:58;1.63;;;1.53;;
1775;SDS011;885;42.626;23.200;2023-04-03T03:16:29;1.57;;;1.47;;
1775;SDS011;885;42.626;23.200;2023-04-03T03:18:56;2.43;;;2.23;;
1775;SDS011;885;42.626;23.200;2023-04-03T03:21:22;1.70;;;1.60;;
1775;SDS011;885;42.626;23.200;2023-04-03T03:23:49;2.60;;;1.93;;
1775;SDS011;885;42.626;23.200;2023-04-03T03:26:16;1.67;;;1.57;;
1775;SDS011;885;42.626;23.200;2023-04-03T03:28:43;2.00;;;1.80;;
1775;SDS011;885;42.626;23.200;2023-04-03T03:31:10;1.50;;;1.40;;
1775;SDS011;885;42.626;23.200;2023-04-03T03:33:38;2.00;;;1.80;;
1775;SDS011;885;42.626;23.200;2023-04-03T03:36:05;2.13;;;1.90;;
1775;SDS011;885;42.626;23.200;2023-04-03T03:38:32;1.50;;;1.40;;
1775;SDS011;885;42.626;23.200;2023-04-03T03:40:59;2.27;;;2.07;;
1775;SDS011;885;42.626;23.200;2023-04-03T03:43:27;1.40;;;1.30;;
1775;SDS011;885;42.626;23.200;2023-04-03T03:45:54;2.20;;;1.90;;
1775;SDS011;885;42.626;23.200;2023-04-03T03:48:21;2.13;;;2.00;;
1775;SDS011;885;42.626;23.200;2023-04-03T03:50:49;2.27;;;2.00;;
1775;SDS011;885;42.626;23.200;2023-04-03T03:53:17;1.63;;;1.53;;
1775;SDS011;885;42.626;23.200;2023-04-03T03:55:44;2.20;;;1.60;;
1775;SDS011;885;42.626;23.200;2023-04-03T03:58:11;1.73;;;1.63;;
1775;SDS011;885;42.626;23.200;2023-04-03T04:00:38;1.70;;;1.60;;
1775;SDS011;885;42.626;23.200;2023-04-03T04:03:04;2.40;;;2.13;;
1775;SDS011;885;42.626;23.200;2023-04-03T04:05:31;2.23;;;2.00;;
1775;SDS011;885;42.626;23.200;2023-04-03T04:07:59;2.27;;;2.07;;
1775;SDS011;885;42.626;23.200;2023-04-03T04:10:26;2.20;;;2.00;;
1775;SDS011;885;42.626;23.200;2023-04-03T04:12:53;2.37;;;2.17;;
1775;SDS011;885;42.626;23.200;2023-04-03T04:15:22;2.23;;;2.10;;
1775;SDS011;885;42.626;23.200;2023-04-03T04:17:50;4.07;;;2.27;;
1775;SDS011;885;42.626;23.200;2023-04-03T04:20:18;2.57;;;1.80;;
1775;SDS011;885;42.626;23.200;2023-04-03T04:22:45;3.90;;;2.47;;
1775;SDS011;885;42.626;23.200;2023-04-03T04:25:13;2.73;;;2.00;;
1775;SDS011;885;42.626;23.200;2023-04-03T04:27:40;2.70;;;2.50;;
1775;SDS011;885;42.626;23.200;2023-04-03T04:30:07;2.53;;;2.33;;
1775;SDS011;885;42.626;23.200;2023-04-03T04:32:35;2.70;;;2.40;;
1775;SDS011;885;42.626;23.200;2023-04-03T04:35:02;2.27;;;2.07;;
1775;SDS011;885;42.626;23.200;2023-04-03T04:37:29;2.70;;;2.07;;
1775;SDS011;885;42.626;23.200;2023-04-03T04:39:56;3.97;;;2.40;;
1775;SDS011;885;42.626;23.200;2023-04-03T04:42:25;3.30;;;2.00;;
1775;SDS011;885;42.626;23.200;2023-04-03T04:44:52;2.37;;;2.17;;
1775;SDS011;885;42.626;23.200;2023-04-03T04:47:18;2.70;;;2.00;;
1775;SDS011;885;42.626;23.200;2023-04-03T04:49:45;2.40;;;2.20;;
1775;SDS011;885;42.626;23.200;2023-04-03T04:52:13;2.63;;;2.20;;
1775;SDS011;885;42.626;23.200;2023-04-03T04:54:42;2.23;;;2.03;;
1775;SDS011;885;42.626;23.200;2023-04-03T04:57:11;2.57;;;2.37;;
1775;SDS011;885;42.626;23.200;2023-04-03T04:59:39;2.93;;;2.43;;
1775;SDS011;885;42.626;23.200;2023-04-03T05:02:06;8.00;;;2.60;;
1775;SDS011;885;42.626;23.200;2023-04-03T05:04:33;2.47;;;2.27;;
1775;SDS011;885;42.626;23.200;2023-04-03T05:06:59;2.23;;;2.07;;
1775;SDS011;885;42.626;23.200;2023-04-03T05:09:26;2.33;;;2.13;;
1775;SDS011;885;42.626;23.200;2023-04-03T05:11:53;2.47;;;2.27;;
1775;SDS011;885;42.626;23.200;2023-04-03T05:14:21;2.83;;;2.60;;
1775;SDS011;885;42.626;23.200;2023-04-03T05:16:49;2.80;;;2.60;;
1775;SDS011;885;42.626;23.200;2023-04-03T05:19:18;2.97;;;2.63;;
1775;SDS011;885;42.626;23.200;2023-04-03T05:21:45;2.73;;;2.50;;
1775;SDS011;885;42.626;23.200;2023-04-03T05:24:12;2.60;;;2.40;;
1775;SDS011;885;42.626;23.200;2023-04-03T05:26:40;3.03;;;2.10;;
1775;SDS011;885;42.626;23.200;2023-04-03T05:29:08;2.20;;;2.00;;
1775;SDS011;885;42.626;23.200;2023-04-03T05:31:35;2.73;;;2.47;;
1775;SDS011;885;42.626;23.200;2023-04-03T05:34:03;2.80;;;2.50;;
1775;SDS011;885;42.626;23.200;2023-04-03T05:36:31;2.67;;;2.10;;
1775;SDS011;885;42.626;23.200;2023-04-03T05:38:58;2.40;;;2.20;;
1775;SDS011;885;42.626;23.200;2023-04-03T05:41:25;3.23;;;2.03;;
1775;SDS011;885;42.626;23.200;2023-04-03T05:43:52;2.97;;;2.17;;
1775;SDS011;885;42.626;23.200;2023-04-03T05:46:19;3.30;;;2.50;;
1775;SDS011;885;42.626;23.200;2023-04-03T05:48:47;5.20;;;2.40;;
1775;SDS011;885;42.626;23.200;2023-04-03T05:51:16;3.13;;;2.50;;
1775;SDS011;885;42.626;23.200;2023-04-03T05:53:44;2.73;;;2.53;;
1775;SDS011;885;42.626;23.200;2023-04-03T05:56:12;2.57;;;2.37;;
1775;SDS011;885;42.626;23.200;2023-04-03T05:58:39;2.67;;;2.40;;
1775;SDS011;885;42.626;23.200;2023-04-03T06:01:06;2.40;;;2.20;;
1775;SDS011;885;42.626;23.200;2023-04-03T06:03:33;3.27;;;2.73;;
1775;SDS011;885;42.626;23.200;2023-04-03T06:06:01;2.23;;;2.03;;
1775;SDS011;885;42.626;23.200;2023-04-03T06:08:31;2.70;;;2.00;;
1775;SDS011;885;42.626;23.200;2023-04-03T06:10:59;2.33;;;2.13;;
1775;SDS011;885;42.626;23.200;2023-04-03T06:13:27;2.30;;;2.10;;
1775;SDS011;885;42.626;23.200;2023-04-03T06:15:54;2.50;;;2.30;;
1775;SDS011;885;42.626;23.200;2023-04-03T06:18:23;2.43;;;2.23;;
1775;SDS011;885;42.626;23.200;2023-04-03T06:20:50;2.93;;;2.73;;
1775;SDS011;885;42.626;23.200;2023-04-03T06:23:17;2.70;;;2.50;;
1775;SDS011;885;42.626;23.200;2023-04-03T06:25:45;3.60;;;2.10;;
1775;SDS011;885;42.626;23.200;2023-04-03T06:28:12;2.20;;;2.10;;
1775;SDS011;885;42.626;23.200;2023-04-03T06:30:39;3.30;;;2.77;;
1775;SDS011;885;42.626;23.200;2023-04-03T06:33:06;2.70;;;2.10;;
1775;SDS011;885;42.626;23.200;2023-04-03T06:35:33;12.60;;;6.77;;
1775;SDS011;885;42.626;23.200;2023-04-03T06:38:00;6.03;;;2.73;;
1775;SDS011;885;42.626;23.200;2023-04-03T06:40:29;3.57;;;3.27;;
1775;SDS011;885;42.626;23.200;2023-04-03T06:42:57;3.23;;;2.60;;
1775;SDS011;885;42.626;23.200;2023-04-03T06:45:24;4.60;;;3.53;;
1775;SDS011;885;42.626;23.200;2023-04-03T06:47:51;3.73;;;2.47;;
1775;SDS011;885;42.626;23.200;2023-04-03T06:50:18;2.80;;;2.50;;
1775;SDS011;885;42.626;23.200;2023-04-03T06:52:45;4.20;;;2.23;;
1775;SDS011;885;42.626;23.200;2023-04-03T06:55:12;4.30;;;3.23;;
1775;SDS011;885;42.626;23.200;2023-04-03T06:57:38;4.40;;;3.90;;
1775;SDS011;885;42.626;23.200;2023-04-03T07:00:07;3.20;;;2.90;;
1775;SDS011;885;42.626;23.200;2023-04-03T07:02:35;4.30;;;3.07;;
1775;SDS011;885;42.626;23.200;2023-04-03T07:05:02;5.50;;;3.10;;
1775;SDS011;885;42.626;23.200;2023-04-03T07:07:30;7.40;;;5.50;;
1775;SDS011;885;42.626;23.200;2023-04-03T07:09:59;5.43;;;4.20;;
1775;SDS011;885;42.626;23.200;2023-04-03T07:12:25;5.30;;;3.57;;
1775;SDS011;885;42.626;23.200;2023-04-03T07:14:52;4.50;;;3.60;;
1775;SDS011;885;42.626;23.200;2023-04-03T07:17:21;3.43;;;3.13;;
1775;SDS011;885;42.626;23.200;2023-04-03T07:19:48;11.87;;;8.87;;
1775;SDS011;885;42.626;23.200;2023-04-03T07:22:15;3.40;;;3.10;;
1775;SDS011;885;42.626;23.200;2023-04-03T07:24:41;4.67;;;4.17;;
1775;SDS011;885;42.626;23.200;2023-04-03T07:27:09;3.80;;;3.47;;
1775;SDS011;885;42.626;23.200;2023-04-03T07:29:37;4.17;;;3.80;;
1775;SDS011;885;42.626;23.200;2023-04-03T07:32:05;4.87;;;3.17;;
1775;SDS011;885;42.626;23.200;2023-04-03T07:34:33;3.27;;;2.97;;
1775;SDS011;885;42.626;23.200;2023-04-03T07:37:00;3.53;;;3.03;;
1775;SDS011;885;42.626;23.200;2023-04-03T07:39:28;3.43;;;3.13;;
1775;SDS011;885;42.626;23.200;2023-04-03T07:41:55;3.33;;;3.03;;
1775;SDS011;885;42.626;23.200;2023-04-03T07:44:21;4.50;;;3.63;;
1775;SDS011;885;42.626;23.200;2023-04-03T07:46:48;3.53;;;3.23;;
1775;SDS011;885;42.626;23.200;2023-04-03T07:49:15;3.40;;;2.93;;
1775;SDS011;885;42.626;23.200;2023-04-03T07:51:44;3.37;;;3.07;;
1775;SDS011;885;42.626;23.200;2023-04-03T07:54:11;3.23;;;2.93;;
1775;SDS011;885;42.626;23.200;2023-04-03T07:56:38;3.90;;;3.50;;
1775;SDS011;885;42.626;23.200;2023-04-03T07:59:06;3.90;;;3.57;;
1775;SDS011;885;42.626;23.200;2023-04-03T08:01:33;4.37;;;3.97;;
1775;SDS011;885;42.626;23.200;2023-04-03T08:04:00;5.70;;;4.30;;
1775;SDS011;885;42.626;23.200;2023-04-03T08:06:27;2.60;;;2.40;;
1775;SDS011;885;42.626;23.200;2023-04-03T08:08:58;4.53;;;4.10;;
1775;SDS011;885;42.626;23.200;2023-04-03T08:11:25;3.33;;;3.03;;
1775;SDS011;885;42.626;23.200;2023-04-03T08:13:52;3.70;;;3.40;;
1775;SDS011;885;42.626;23.200;2023-04-03T08:16:20;3.20;;;2.90;;
1775;SDS011;885;42.626;23.200;2023-04-03T08:18:50;4.30;;;3.90;;
1775;SDS011;885;42.626;23.200;2023-04-03T08:21:17;4.70;;;3.37;;
1775;SDS011;885;42.626;23.200;2023-04-03T08:23:44;5.03;;;3.80;;
1775;SDS011;885;42.626;23.200;2023-04-03T08:26:16;5.03;;;4.53;;
1775;SDS011;885;42.626;23.200;2023-04-03T08:28:44;7.80;;;4.80;;
1775;SDS011;885;42.626;23.200;2023-04-03T08:31:12;6.20;;;4.90;;
1775;SDS011;885;42.626;23.200;2023-04-03T08:33:40;6.30;;;5.40;;
1775;SDS011;885;42.626;23.200;2023-04-03T08:36:14;7.00;;;5.57;;
1775;SDS011;885;42.626;23.200;2023-04-03T08:38:43;7.70;;;5.77;;
1775;SDS011;885;42.626;23.200;2023-04-03T08:41:11;6.20;;;5.60;;
1775;SDS011;885;42.626;23.200;2023-04-03T08:43:49;8.23;;;5.67;;
1775;SDS011;885;42.626;23.200;2023-04-03T08:46:24;5.30;;;4.80;;
1775;SDS011;885;42.626;23.200;2023-04-03T08:48:57;5.50;;;5.00;;
1775;SDS011;885;42.626;23.200;2023-04-03T08:51:25;8.33;;;6.60;;
1775;SDS011;885;42.626;23.200;2023-04-03T08:53:55;8.00;;;5.90;;
1775;SDS011;885;42.626;23.200;2023-04-03T08:56:26;7.53;;;5.73;;
1775;SDS011;885;42.626;23.200;2023-04-03T08:58:55;6.00;;;5.40;;
1775;SDS011;885;42.626;23.200;2023-04-03T09:01:25;5.90;;;5.33;;
1775;SDS011;885;42.626;23.200;2023-04-03T09:03:55;6.83;;;5.30;;
1775;SDS011;885;42.626;23.200;2023-04-03T09:06:23;6.87;;;6.17;;
1775;SDS011;885;42.626;23.200;2023-04-03T09:09:04;8.90;;;7.13;;
1775;SDS011;885;42.626;23.200;2023-04-03T09:11:43;7.87;;;6.90;;
1775;SDS011;885;42.626;23.200;2023-04-03T09:14:17;9.20;;;7.17;;
1775;SDS011;885;42.626;23.200;2023-04-03T09:16:53;10.43;;;7.90;;
1775;SDS011;885;42.626;23.200;2023-04-03T09:19:25;9.93;;;7.73;;
1775;SDS011;885;42.626;23.200;2023-04-03T09:22:02;9.60;;;7.97;;
1775;SDS011;885;42.626;23.200;2023-04-03T09:24:38;8.57;;;7.60;;
1775;SDS011;885;42.626;23.200;2023-04-03T09:27:09;9.17;;;8.37;;
1775;SDS011;885;42.626;23.200;2023-04-03T09:29:39;9.53;;;6.87;;
1775;SDS011;885;42.626;23.200;2023-04-03T09:32:17;10.40;;;9.40;;
1775;SDS011;885;42.626;23.200;2023-04-03T09:34:46;12.70;;;9.13;;
1775;SDS011;885;42.626;23.200;2023-04-03T09:37:32;10.50;;;9.40;;
1775;SDS011;885;42.626;23.200;2023-04-03T09:40:02;14.67;;;9.20;;
1775;SDS011;885;42.626;23.200;2023-04-03T09:42:32;13.93;;;8.30;;
1775;SDS011;885;42.626;23.200;2023-04-03T09:44:59;11.83;;;8.60;;
1775;SDS011;885;42.626;23.200;2023-04-03T09:47:28;22.97;;;14.93;;
1775;SDS011;885;42.626;23.200;2023-04-03T09:52:45;18.20;;;12.90;;
1775;SDS011;885;42.626;23.200;2023-04-03T09:55:15;10.10;;;6.37;;
1775;SDS011;885;42.626;23.200;2023-04-03T09:57:45;5.70;;;4.27;;
1775;SDS011;885;42.626;23.200;2023-04-03T10:00:19;24.80;;;15.30;;
1775;SDS011;885;42.626;23.200;2023-04-03T10:02:49;20.40;;;13.30;;
1775;SDS011;885;42.626;23.200;2023-04-03T10:05:28;4.40;;;3.97;;
1775;SDS011;885;42.626;23.200;2023-04-03T10:08:08;11.43;;;8.57;;
1775;SDS011;885;42.626;23.200;2023-04-03T10:10:48;2.97;;;2.47;;
1775;SDS011;885;42.626;23.200;2023-04-03T10:13:35;5.23;;;4.23;;
1775;SDS011;885;42.626;23.200;2023-04-03T10:16:03;5.40;;;4.90;;
1775;SDS011;885;42.626;23.200;2023-04-03T10:18:37;7.20;;;5.27;;
1775;SDS011;885;42.626;23.200;2023-04-03T10:21:10;2.53;;;2.33;;
1775;SDS011;885;42.626;23.200;2023-04-03T10:23:43;5.33;;;3.70;;
1775;SDS011;885;42.626;23.200;2023-04-03T10:26:17;5.23;;;3.57;;
1775;SDS011;885;42.626;23.200;2023-04-03T10:28:58;7.07;;;4.10;;
1775;SDS011;885;42.626;23.200;2023-04-03T10:31:34;5.13;;;4.70;;
1775;SDS011;885;42.626;23.200;2023-04-03T10:34:05;4.37;;;3.97;;
1775;SDS011;885;42.626;23.200;2023-04-03T10:36:35;8.43;;;7.00;;
1775;SDS011;885;42.626;23.200;2023-04-03T10:39:08;2.70;;;2.50;;
1775;SDS011;885;42.626;23.200;2023-04-03T10:41:46;2.00;;;1.80;;
1775;SDS011;885;42.626;23.200;2023-04-03T10:44:26;3.37;;;3.07;;
1775;SDS011;885;42.626;23.200;2023-04-03T10:47:05;2.83;;;1.70;;
1775;SDS011;885;42.626;23.200;2023-04-03T10:49:42;2.00;;;1.73;;
1775;SDS011;885;42.626;23.200;2023-04-03T10:52:19;1.77;;;1.67;;
1775;SDS011;885;42.626;23.200;2023-04-03T10:54:54;2.77;;;2.57;;
1775;SDS011;885;42.626;23.200;2023-04-03T10:57:26;2.40;;;2.03;;
1775;SDS011;885;42.626;23.200;2023-04-03T10:59:57;2.37;;;2.17;;
1775;SDS011;885;42.626;23.200;2023-04-03T11:02:28;2.40;;;2.20;;
1775;SDS011;885;42.626;23.200;2023-04-03T11:04:59;2.27;;;2.07;;
1775;SDS011;885;42.626;23.200;2023-04-03T11:07:28;2.53;;;1.63;;
1775;SDS011;885;42.626;23.200;2023-04-03T11:10:00;2.47;;;2.30;;
1775;SDS011;885;42.626;23.200;2023-04-03T11:12:33;1.97;;;1.87;;
1775;SDS011;885;42.626;23.200;2023-04-03T11:15:12;2.50;;;2.30;;
1775;SDS011;885;42.626;23.200;2023-04-03T11:17:42;3.90;;;3.00;;
1775;SDS011;885;42.626;23.200;2023-04-03T11:20:14;3.93;;;3.00;;
1775;SDS011;885;42.626;23.200;2023-04-03T11:22:45;2.77;;;2.53;;
1775;SDS011;885;42.626;23.200;2023-04-03T11:25:18;3.87;;;2.63;;
1775;SDS011;885;42.626;23.200;2023-04-03T11:27:49;2.13;;;1.93;;
1775;SDS011;885;42.626;23.200;2023-04-03T11:30:23;2.63;;;2.43;;
1775;SDS011;885;42.626;23.200;2023-04-03T11:32:58;3.20;;;3.00;;
1775;SDS011;885;42.626;23.200;2023-04-03T11:35:35;2.83;;;2.63;;
1775;SDS011;885;42.626;23.200;2023-04-03T11:38:03;2.70;;;2.50;;
1775;SDS011;885;42.626;23.200;2023-04-03T11:40:32;2.93;;;2.67;;
1775;SDS011;885;42.626;23.200;2023-04-03T11:43:05;3.90;;;2.87;;
1775;SDS011;885;42.626;23.200;2023-04-03T11:45:51;4.27;;;3.03;;
1775;SDS011;885;42.626;23.200;2023-04-03T11:51:40;3.87;;;3.23;;
1775;SDS011;885;42.626;23.200;2023-04-03T11:57:23;4.40;;;4.00;;
1775;SDS011;885;42.626;23.200;2023-04-03T12:09:35;5.23;;;4.73;;
1775;SDS011;885;42.626;23.200;2023-04-03T12:12:31;4.20;;;3.80;;
1775;SDS011;885;42.626;23.200;2023-04-03T12:15:21;4.13;;;3.83;;
1775;SDS011;885;42.626;23.200;2023-04-03T12:21:22;4.03;;;3.67;;
1775;SDS011;885;42.626;23.200;2023-04-03T12:26:51;5.87;;;5.27;;
1775;SDS011;885;42.626;23.200;2023-04-03T12:29:33;3.30;;;3.00;;
1775;SDS011;885;42.626;23.200;2023-04-03T12:32:09;4.03;;;3.73;;
1775;SDS011;885;42.626;23.200;2023-04-03T12:34:49;3.90;;;3.50;;
1775;SDS011;885;42.626;23.200;2023-04-03T12:37:34;4.60;;;4.30;;
1775;SDS011;885;42.626;23.200;2023-04-03T12:40:10;3.37;;;3.07;;
1775;SDS011;885;42.626;23.200;2023-04-03T12:43:02;4.13;;;3.73;;
1775;SDS011;885;42.626;23.200;2023-04-03T12:45:43;3.23;;;2.93;;
1775;SDS011;885;42.626;23.200;2023-04-03T12:48:16;3.40;;;3.10;;
1775;SDS011;885;42.626;23.200;2023-04-03T12:50:46;2.40;;;2.07;;
1775;SDS011;885;42.626;23.200;2023-04-03T12:53:16;2.67;;;2.47;;
1775;SDS011;885;42.626;23.200;2023-04-03T12:55:46;2.13;;;2.00;;
1775;SDS011;885;42.626;23.200;2023-04-03T12:58:14;2.67;;;2.43;;
1775;SDS011;885;42.626;23.200;2023-04-03T13:00:43;2.87;;;2.40;;
1775;SDS011;885;42.626;23.200;2023-04-03T13:03:21;2.27;;;2.07;;
1775;SDS011;885;42.626;23.200;2023-04-03T13:05:53;5.00;;;4.60;;
1775;SDS011;885;42.626;23.200;2023-04-03T13:08:23;2.90;;;2.50;;
1775;SDS011;885;42.626;23.200;2023-04-03T13:10:52;2.40;;;2.20;;
1775;SDS011;885;42.626;23.200;2023-04-03T13:13:23;3.00;;;2.73;;
1775;SDS011;885;42.626;23.200;2023-04-03T13:15:51;2.53;;;2.33;;
1775;SDS011;885;42.626;23.200;2023-04-03T13:18:27;5.93;;;2.20;;
1775;SDS011;885;42.626;23.200;2023-04-03T13:21:00;3.73;;;2.43;;
1775;SDS011;885;42.626;23.200;2023-04-03T13:23:30;3.50;;;3.20;;
1775;SDS011;885;42.626;23.200;2023-04-03T13:25:58;3.50;;;3.20;;
1775;SDS011;885;42.626;23.200;2023-04-03T13:28:28;4.77;;;3.50;;
1775;SDS011;885;42.626;23.200;2023-04-03T13:30:59;2.57;;;2.27;;
1775;SDS011;885;42.626;23.200;2023-04-03T13:33:29;2.47;;;2.10;;
1775;SDS011;885;42.626;23.200;2023-04-03T13:36:02;2.83;;;2.10;;
1775;SDS011;885;42.626;23.200;2023-04-03T13:38:31;2.13;;;1.97;;
1775;SDS011;885;42.626;23.200;2023-04-03T13:41:03;3.50;;;2.00;;
1775;SDS011;885;42.626;23.200;2023-04-03T13:43:47;2.40;;;2.20;;
1775;SDS011;885;42.626;23.200;2023-04-03T13:46:22;2.80;;;2.33;;
1775;SDS011;885;42.626;23.200;2023-04-03T13:48:52;9.60;;;6.60;;
1775;SDS011;885;42.626;23.200;2023-04-03T13:51:23;3.90;;;3.53;;
1775;SDS011;885;42.626;23.200;2023-04-03T13:53:52;10.17;;;7.87;;
1775;SDS011;885;42.626;23.200;2023-04-03T13:56:23;6.07;;;4.60;;
1775;SDS011;885;42.626;23.200;2023-04-03T13:58:58;5.67;;;4.80;;
1775;SDS011;885;42.626;23.200;2023-04-03T14:01:33;4.57;;;3.00;;
1775;SDS011;885;42.626;23.200;2023-04-03T14:04:12;4.23;;;3.77;;
1775;SDS011;885;42.626;23.200;2023-04-03T14:06:43;4.13;;;3.70;;
1775;SDS011;885;42.626;23.200;2023-04-03T14:09:11;2.40;;;1.90;;
1775;SDS011;885;42.626;23.200;2023-04-03T14:11:38;4.40;;;3.43;;
1775;SDS011;885;42.626;23.200;2023-04-03T14:14:09;6.37;;;5.00;;
1775;SDS011;885;42.626;23.200;2023-04-03T14:16:41;7.40;;;3.67;;
1775;SDS011;885;42.626;23.200;2023-04-03T14:19:11;3.60;;;2.13;;
1775;SDS011;885;42.626;23.200;2023-04-03T14:21:45;4.20;;;3.33;;
1775;SDS011;885;42.626;23.200;2023-04-03T14:24:12;3.57;;;3.07;;
1775;SDS011;885;42.626;23.200;2023-04-03T14:26:39;3.53;;;2.93;;
1775;SDS011;885;42.626;23.200;2023-04-03T14:29:09;6.30;;;2.93;;
1775;SDS011;885;42.626;23.200;2023-04-03T14:31:37;2.73;;;2.10;;
1775;SDS011;885;42.626;23.200;2023-04-03T14:34:03;1.90;;;1.60;;
1775;SDS011;885;42.626;23.200;2023-04-03T14:36:31;2.60;;;2.40;;
1775;SDS011;885;42.626;23.200;2023-04-03T14:39:00;2.47;;;2.20;;
1775;SDS011;885;42.626;23.200;2023-04-03T14:41:28;2.50;;;2.30;;
1775;SDS011;885;42.626;23.200;2023-04-03T14:43:55;3.00;;;2.80;;
1775;SDS011;885;42.626;23.200;2023-04-03T14:46:23;3.40;;;3.10;;
1775;SDS011;885;42.626;23.200;2023-04-03T14:48:54;14.53;;;10.83;;
1775;SDS011;885;42.626;23.200;2023-04-03T14:51:21;1.63;;;1.50;;
1775;SDS011;885;42.626;23.200;2023-04-03T14:53:48;1.57;;;1.47;;
1775;SDS011;885;42.626;23.200;2023-04-03T14:56:18;3.53;;;3.23;;
1775;SDS011;885;42.626;23.200;2023-04-03T14:58:49;2.57;;;2.37;;
1775;SDS011;885;42.626;23.200;2023-04-03T15:01:18;2.67;;;2.47;;
1775;SDS011;885;42.626;23.200;2023-04-03T15:03:45;1.87;;;1.77;;
1775;SDS011;885;42.626;23.200;2023-04-03T15:06:12;1.53;;;1.40;;
1775;SDS011;885;42.626;23.200;2023-04-03T15:08:41;2.03;;;1.80;;
1775;SDS011;885;42.626;23.200;2023-04-03T15:11:10;2.00;;;1.60;;
1775;SDS011;885;42.626;23.200;2023-04-03T15:13:39;2.10;;;1.80;;
1775;SDS011;885;42.626;23.200;2023-04-03T15:16:10;2.70;;;2.50;;
1775;SDS011;885;42.626;23.200;2023-04-03T15:18:41;3.80;;;2.30;;
1775;SDS011;885;42.626;23.200;2023-04-03T15:21:08;2.33;;;1.57;;
1775;SDS011;885;42.626;23.200;2023-04-03T15:23:38;1.50;;;1.40;;
1775;SDS011;885;42.626;23.200;2023-04-03T15:26:05;4.67;;;2.13;;
1775;SDS011;885;42.626;23.200;2023-04-03T15:28:33;2.40;;;2.20;;
1775;SDS011;885;42.626;23.200;2023-04-03T15:31:06;3.20;;;2.90;;
1775;SDS011;885;42.626;23.200;2023-04-03T15:33:34;1.80;;;1.70;;
1775;SDS011;885;42.626;23.200;2023-04-03T15:36:01;1.73;;;1.63;;
1775;SDS011;885;42.626;23.200;2023-04-03T15:38:29;2.13;;;2.03;;
1775;SDS011;885;42.626;23.200;2023-04-03T15:40:56;1.80;;;1.70;;
1775;SDS011;885;42.626;23.200;2023-04-03T15:43:23;7.57;;;6.23;;
1775;SDS011;885;42.626;23.200;2023-04-03T15:45:50;1.40;;;1.30;;
1775;SDS011;885;42.626;23.200;2023-04-03T15:48:18;4.40;;;4.00;;
1775;SDS011;885;42.626;23.200;2023-04-03T15:50:45;5.03;;;4.53;;
1775;SDS011;885;42.626;23.200;2023-04-03T15:53:12;1.70;;;1.60;;
1775;SDS011;885;42.626;23.200;2023-04-03T15:55:39;1.60;;;1.50;;
1775;SDS011;885;42.626;23.200;2023-04-03T15:58:06;2.60;;;2.40;;